createdAt,value
2023-03-17T00:02:29.120Z,95472.38
2023-03-17T00:07:30.580Z,95478.09
2023-03-17T00:12:32.022Z,95469.13
2023-03-17T00:17:33.602Z,95480.66
2023-03-17T00:22:35.057Z,95471.75
2023-03-17T00:27:36.554Z,95476.50
2023-03-17T00:32:39.019Z,95476.84
2023-03-17T00:37:40.571Z,95478.03
2023-03-17T00:42:43.563Z,95470.78
2023-03-17T00:47:45.654Z,95461.13
2023-03-17T00:52:47.785Z,95459.34
2023-03-17T00:57:50.217Z,95447.09
2023-03-17T01:02:54.193Z,95445.78
2023-03-17T01:07:56.841Z,95445.53
2023-03-17T01:12:59.459Z,95451.84
2023-03-17T01:18:02.059Z,95448.38
2023-03-17T01:23:03.653Z,95433.97
2023-03-17T01:28:05.858Z,95432.09
2023-03-17T01:33:09.380Z,95422.13
2023-03-17T01:38:14.470Z,95414.16
2023-03-17T01:43:16.212Z,95410.47
2023-03-17T01:48:18.532Z,95412.38
2023-03-17T01:53:22.324Z,95410.09
2023-03-17T01:58:25.963Z,95417.97
2023-03-17T02:03:28.413Z,95414.91
2023-03-17T02:08:30.037Z,95398.91
2023-03-17T02:13:32.404Z,95397.63
2023-03-17T02:18:34.078Z,95395.69
2023-03-17T02:23:35.533Z,95387.13
2023-03-17T02:28:37.164Z,95399.19
2023-03-17T02:33:38.904Z,95390.41
2023-03-17T02:38:40.363Z,95392.34
2023-03-17T02:43:41.868Z,95395.69
2023-03-17T02:48:43.684Z,95399.84
2023-03-17T02:53:45.160Z,95399.41
2023-03-17T02:58:46.722Z,95398.50
2023-03-17T03:03:48.212Z,95407.75
2023-03-17T03:08:50.923Z,95411.19
2023-03-17T03:13:52.475Z,95409.94
2023-03-17T03:18:53.916Z,95413.66
2023-03-17T03:23:55.764Z,95410.81
2023-03-17T03:28:57.275Z,95402.13
2023-03-17T03:33:58.723Z,95417.28
2023-03-17T03:39:00.204Z,95418.44
2023-03-17T03:44:01.810Z,95417.44
2023-03-17T03:49:03.326Z,95423.84
2023-03-17T03:54:04.795Z,95430.22
2023-03-17T03:59:06.313Z,95432.03
2023-03-17T04:04:07.830Z,95427.16
2023-03-17T04:09:09.325Z,95432.63
2023-03-17T04:14:10.787Z,95432.06
2023-03-17T04:19:12.314Z,95434.00
2023-03-17T04:24:14.100Z,95429.22
2023-03-17T04:29:15.645Z,95427.16
2023-03-17T04:34:18.459Z,95417.19
2023-03-17T04:39:19.959Z,95420.25
2023-03-17T04:44:21.400Z,95422.00
2023-03-17T04:49:22.948Z,95423.84
2023-03-17T04:54:24.475Z,95408.31
2023-03-17T04:59:25.972Z,95414.03
2023-03-17T05:04:31.713Z,95414.88
2023-03-17T05:09:33.878Z,95414.94
2023-03-17T05:14:36.074Z,95409.72
2023-03-17T05:19:37.609Z,95405.66
2023-03-17T05:24:39.116Z,95408.34
2023-03-17T05:29:40.593Z,95409.59
2023-03-17T05:34:42.160Z,95408.31
2023-03-17T05:39:43.674Z,95407.09
2023-03-17T05:44:45.181Z,95404.66
2023-03-17T05:49:46.636Z,95414.16
2023-03-17T05:54:48.126Z,95405.84
2023-03-17T05:59:49.845Z,95411.25
2023-03-17T06:04:51.303Z,95415.75
2023-03-17T06:09:52.780Z,95419.91
2023-03-17T06:14:54.300Z,95415.44
2023-03-17T06:19:55.812Z,95413.03
2023-03-17T06:24:57.299Z,95421.78
2023-03-17T06:29:58.829Z,95431.78
2023-03-17T06:35:00.335Z,95427.72
2023-03-17T06:40:02.096Z,95423.94
2023-03-17T06:45:03.960Z,95415.59
2023-03-17T06:50:07.538Z,95412.56
2023-03-17T06:55:10.509Z,95415.09
2023-03-17T07:00:12.575Z,95411.72
2023-03-17T07:05:14.055Z,95415.66
2023-03-17T07:10:15.655Z,95427.56
2023-03-17T07:15:17.376Z,95429.91
2023-03-17T07:20:18.868Z,95433.16
2023-03-17T07:25:20.374Z,95432.56
2023-03-17T07:30:21.866Z,95447.59
2023-03-17T07:35:23.597Z,95446.72
2023-03-17T07:40:25.601Z,95435.56
2023-03-17T07:45:27.170Z,95422.81
2023-03-17T07:50:29.891Z,95420.66
2023-03-17T07:55:32.744Z,95421.53
2023-03-17T08:00:34.731Z,95426.91
2023-03-17T08:05:36.530Z,95405.94
2023-03-17T08:10:38.066Z,95414.69
2023-03-17T08:15:39.688Z,95411.56
2023-03-17T08:20:41.208Z,95407.78
2023-03-17T08:25:42.665Z,95400.63
2023-03-17T08:30:44.280Z,95407.72
2023-03-17T08:35:46.097Z,95405.38
2023-03-17T08:40:47.617Z,95397.50
2023-03-17T08:45:49.072Z,95391.09
2023-03-17T08:50:50.584Z,95389.28
2023-03-17T08:55:54.469Z,95375.03
2023-03-17T09:00:59.986Z,95376.00
2023-03-17T09:06:01.818Z,95372.03
2023-03-17T09:11:03.347Z,95373.97
2023-03-17T09:16:06.618Z,95371.56
2023-03-17T09:21:09.830Z,95360.09
2023-03-17T09:26:11.681Z,95362.34
2023-03-17T09:31:13.240Z,95354.88
2023-03-17T09:36:14.827Z,95356.06
2023-03-17T09:41:16.306Z,95348.22
2023-03-17T09:46:51.791Z,95353.97
2023-03-17T09:51:53.684Z,95355.59
2023-03-17T09:57:12.680Z,95350.81
2023-03-17T10:02:23.560Z,95359.16
2023-03-17T10:07:44.538Z,95352.56
2023-03-17T10:13:07.193Z,95350.91
2023-03-17T10:18:14.260Z,95340.78
2023-03-17T10:23:22.267Z,95333.13
2023-03-17T10:28:30.999Z,95317.94
2023-03-17T10:33:32.516Z,95312.69
2023-03-17T10:38:34.048Z,95312.84
2023-03-17T10:43:43.635Z,95318.72
2023-03-17T10:48:57.412Z,95314.66
2023-03-17T10:54:08.272Z,95304.00
2023-03-17T10:59:25.889Z,95303.66
2023-03-17T11:04:35.235Z,95298.50
2023-03-17T11:09:37.733Z,95292.91
2023-03-17T11:14:43.463Z,95287.56
2023-03-17T11:20:07.351Z,95290.53
2023-03-17T11:25:17.980Z,95275.56
2023-03-17T11:30:34.180Z,95267.56
2023-03-17T11:35:58.950Z,95256.75
2023-03-17T11:41:00.386Z,95259.56
2023-03-17T11:46:25.494Z,95251.09
2023-03-17T11:51:33.097Z,95252.25
2023-03-17T11:56:52.011Z,95256.94
2023-03-17T12:02:01.094Z,95251.56
2023-03-17T12:07:47.912Z,95237.09
2023-03-17T12:13:02.105Z,95227.88
2023-03-17T12:18:15.050Z,95235.84
2023-03-17T12:23:37.974Z,95231.13
2023-03-17T12:28:50.928Z,95230.53
2023-03-17T12:34:13.228Z,95219.94
2023-03-17T12:39:32.045Z,95225.75
2023-03-17T12:44:49.426Z,95221.44
2023-03-17T12:50:05.248Z,95224.00
2023-03-17T12:55:12.986Z,95215.16
2023-03-17T13:00:26.453Z,95220.59
2023-03-17T13:05:32.496Z,95223.53
2023-03-17T13:10:45.096Z,95218.41
2023-03-17T13:15:46.514Z,95210.19
2023-03-17T13:20:57.073Z,95216.75
2023-03-17T13:25:58.560Z,95215.03
2023-03-17T13:31:27.202Z,95202.91
2023-03-17T13:36:37.611Z,95202.78
2023-03-17T13:42:15.784Z,95206.41
2023-03-17T13:47:30.856Z,95193.72
2023-03-17T13:52:38.960Z,95200.31
2023-03-17T13:57:40.490Z,95201.03
2023-03-17T14:02:43.919Z,95206.34
2023-03-17T14:07:57.080Z,95214.13
2023-03-17T14:13:18.579Z,95207.09
2023-03-17T14:18:34.891Z,95214.97
2023-03-17T14:23:36.404Z,95217.28
2023-03-17T14:28:38.014Z,95212.59
2023-03-17T14:33:41.599Z,95204.94
2023-03-17T14:38:54.802Z,95202.03
2023-03-17T14:44:00.556Z,95211.47
2023-03-17T14:49:14.265Z,95203.75
2023-03-17T14:54:19.830Z,95205.97
2023-03-17T14:59:33.518Z,95202.94
2023-03-17T15:04:35.104Z,95195.28
2023-03-17T15:09:41.084Z,95198.50
2023-03-17T15:14:49.377Z,95191.84
2023-03-17T15:19:53.920Z,95195.84
2023-03-17T15:25:15.055Z,95189.06
2023-03-17T15:30:18.016Z,95185.34
2023-03-17T15:35:19.498Z,95181.69
2023-03-17T15:40:21.413Z,95174.84
2023-03-17T15:45:22.963Z,95165.22
2023-03-17T15:50:27.919Z,95158.38
2023-03-17T15:55:30.512Z,95159.13
2023-03-17T16:00:32.418Z,95160.38
2023-03-17T16:05:35.476Z,95158.50
2023-03-17T16:10:36.942Z,95157.88
2023-03-17T16:15:41.388Z,95154.03
2023-03-17T16:20:45.945Z,95158.81
2023-03-17T16:25:48.166Z,95160.56
2023-03-17T16:30:51.472Z,95158.19
2023-03-17T16:35:53.792Z,95155.78
2023-03-17T16:40:59.345Z,95150.34
2023-03-17T16:46:02.332Z,95148.97
2023-03-17T16:51:05.174Z,95154.44
2023-03-17T16:56:13.999Z,95165.53
2023-03-17T17:01:19.794Z,95152.03
2023-03-17T17:06:22.935Z,95156.34
2023-03-17T17:11:24.464Z,95166.84
2023-03-17T17:16:33.234Z,95160.16
2023-03-17T17:21:34.789Z,95171.84
2023-03-17T17:26:36.294Z,95174.78
2023-03-17T17:31:38.061Z,95177.38
2023-03-17T17:36:39.661Z,95180.53
2023-03-17T17:41:41.182Z,95183.31
2023-03-17T17:46:44.196Z,95182.84
2023-03-17T17:51:45.707Z,95184.25
2023-03-17T17:56:47.238Z,95187.63
2023-03-17T18:01:48.848Z,95188.97
2023-03-17T18:06:50.354Z,95192.91
2023-03-17T18:11:51.890Z,95201.03
2023-03-17T18:16:53.557Z,95205.84
2023-03-17T18:21:55.094Z,95217.16
2023-03-17T18:26:56.650Z,95214.91
2023-03-17T18:31:58.354Z,95213.44
2023-03-17T18:37:01.399Z,95219.63
2023-03-17T18:42:03.066Z,95228.69
2023-03-17T18:47:04.645Z,95232.81
2023-03-17T18:52:06.109Z,95230.81
2023-03-17T18:57:07.748Z,95245.78
2023-03-17T19:02:09.184Z,95252.75
2023-03-17T19:07:10.817Z,95243.50
2023-03-17T19:12:12.383Z,95245.78
2023-03-17T19:17:13.978Z,95251.81
2023-03-17T19:22:16.079Z,95247.66
2023-03-17T19:27:18.062Z,95252.81
2023-03-17T19:32:19.570Z,95256.78
2023-03-17T19:37:21.032Z,95263.09
2023-03-17T19:42:22.560Z,95269.50
2023-03-17T19:47:24.031Z,95274.78
2023-03-17T19:52:25.496Z,95265.31
2023-03-17T19:57:26.979Z,95277.25
2023-03-17T20:02:28.427Z,95281.88
2023-03-17T20:07:30.103Z,95287.91
2023-03-17T20:12:31.702Z,95289.91
2023-03-17T20:17:33.367Z,95287.19
2023-03-17T20:22:34.956Z,95290.44
2023-03-17T20:27:36.566Z,95294.13
2023-03-17T20:32:38.591Z,95293.16
2023-03-17T20:37:40.145Z,95287.84
2023-03-17T20:42:41.631Z,95303.34
2023-03-17T20:47:43.146Z,95298.53
2023-03-17T20:52:44.784Z,95301.25
2023-03-17T20:57:46.300Z,95305.66
2023-03-17T21:02:48.683Z,95307.19
2023-03-17T21:07:50.484Z,95301.59
2023-03-17T21:12:52.033Z,95313.44
2023-03-17T21:17:53.559Z,95307.75
2023-03-17T21:22:55.085Z,95308.63
2023-03-17T21:27:56.784Z,95321.13
2023-03-17T21:32:58.372Z,95318.06
2023-03-17T21:37:59.935Z,95313.91
2023-03-17T21:43:01.460Z,95316.56
2023-03-17T21:48:03.258Z,95314.97
2023-03-17T21:53:04.897Z,95321.50
2023-03-17T21:58:06.353Z,95323.81
2023-03-17T22:03:07.871Z,95327.47
2023-03-17T22:08:09.423Z,95331.09
2023-03-17T22:13:11.135Z,95323.91
2023-03-17T22:18:12.614Z,95334.44
2023-03-17T22:23:14.150Z,95332.81
2023-03-17T22:28:15.613Z,95328.38
2023-03-17T22:33:17.662Z,95332.00
2023-03-17T22:38:19.127Z,95343.00
2023-03-17T22:43:20.629Z,95354.97
2023-03-17T22:48:22.132Z,95354.22
2023-03-17T22:53:23.630Z,95351.19
2023-03-17T22:58:25.680Z,95351.88
2023-03-17T23:03:27.514Z,95355.00
2023-03-17T23:08:30.724Z,95371.97
2023-03-17T23:13:32.230Z,95371.13
2023-03-17T23:18:33.801Z,95368.69
2023-03-17T23:23:36.146Z,95371.88
2023-03-17T23:28:37.775Z,95390.44
2023-03-17T23:33:39.301Z,95385.75
2023-03-17T23:38:41.716Z,95395.06
2023-03-17T23:43:43.226Z,95389.91
2023-03-17T23:48:45.054Z,95394.38
2023-03-17T23:53:46.621Z,95392.41
2023-03-17T23:58:48.165Z,95402.09
